createdAt,value
2023-01-02T08:48:00.604Z,10.20
2023-01-02T08:50:48.159Z,10.20
2023-01-02T08:53:16.215Z,10.30
2023-01-02T08:55:44.278Z,10.40
2023-01-02T09:02:16.433Z,10.50
2023-01-02T09:04:44.662Z,10.50
2023-01-02T09:07:12.689Z,10.40
2023-01-02T09:09:40.787Z,10.50
2023-01-02T09:12:08.997Z,10.40
2023-01-02T09:14:37.172Z,10.40
2023-01-02T09:17:05.275Z,10.50
2023-01-02T09:19:34.861Z,10.50
2023-01-02T09:22:03.127Z,10.40
2023-01-02T09:24:31.203Z,10.40
2023-01-02T09:26:59.357Z,10.40
2023-01-02T09:29:27.500Z,10.40
2023-01-02T09:31:55.573Z,10.40
2023-01-02T09:34:23.692Z,10.50
2023-01-02T09:36:53.458Z,10.50
2023-01-02T09:39:24.499Z,10.50
2023-01-02T09:41:59.943Z,10.60
2023-01-02T09:44:33.085Z,10.50
2023-01-02T09:47:05.160Z,10.60
2023-01-02T09:49:36.200Z,10.60
2023-01-02T09:52:08.232Z,10.60
2023-01-02T09:54:36.300Z,10.70
2023-01-02T09:57:34.440Z,10.80
2023-01-02T10:00:06.649Z,10.80
2023-01-02T10:02:48.642Z,10.90
2023-01-02T10:05:47.871Z,10.90
2023-01-02T10:08:31.952Z,10.90
2023-01-02T10:11:10.126Z,10.80
2023-01-02T10:16:36.853Z,10.80
2023-01-02T10:19:11.104Z,10.70
2023-01-02T10:21:40.543Z,10.80
2023-01-02T10:24:17.787Z,10.70
2023-01-02T10:26:50.576Z,10.70
2023-01-02T10:29:26.422Z,10.70
2023-01-02T10:40:56.077Z,10.70
2023-01-02T10:43:24.217Z,10.60
2023-01-02T10:45:52.291Z,10.60
2023-01-02T10:48:22.997Z,10.60
2023-01-02T10:50:55.585Z,10.60
2023-01-02T10:53:32.469Z,10.70
2023-01-02T10:56:05.173Z,10.70
2023-01-02T10:58:35.479Z,10.70
2023-01-02T11:01:08.470Z,10.70
2023-01-02T11:03:36.653Z,10.70
2023-01-02T11:06:25.778Z,10.80
2023-01-02T11:08:58.173Z,10.80
2023-01-02T11:11:30.030Z,10.80
2023-01-02T11:14:06.935Z,10.80
2023-01-02T11:16:39.852Z,10.80
2023-01-02T11:19:08.906Z,10.80
2023-01-02T11:21:40.052Z,10.80
2023-01-02T11:24:16.315Z,10.80
2023-01-02T11:26:47.388Z,10.80
2023-01-02T11:29:19.411Z,10.80
2023-01-02T11:31:57.419Z,10.80
2023-01-02T11:34:32.612Z,10.70
2023-01-02T11:37:15.455Z,10.70
2023-01-02T11:39:57.537Z,10.80
2023-01-02T11:42:49.255Z,10.70
2023-01-02T11:45:18.800Z,10.70
2023-01-02T11:47:50.219Z,10.70
2023-01-02T11:50:23.557Z,10.70
2023-01-02T11:52:57.418Z,10.60
2023-01-02T11:55:40.598Z,10.60
2023-01-02T11:58:18.940Z,10.70
2023-01-02T12:00:50.613Z,10.70
2023-01-02T12:03:23.424Z,10.80
2023-01-02T12:06:03.378Z,10.90
2023-01-02T12:08:50.993Z,11.00
2023-01-02T12:11:29.992Z,11.00
2023-01-02T12:14:13.836Z,11.00
2023-01-02T12:16:52.205Z,11.10
2023-01-02T12:19:59.284Z,11.10
2023-01-02T12:23:02.624Z,11.10
2023-01-02T12:25:48.977Z,11.20
2023-01-02T12:28:54.982Z,11.30
2023-01-02T12:31:39.290Z,11.30
2023-01-02T12:34:19.067Z,11.10
2023-01-02T12:36:57.086Z,11.00
2023-01-02T12:39:50.793Z,10.90
2023-01-02T12:42:38.369Z,10.80
2023-01-02T12:45:14.498Z,10.80
2023-01-02T12:47:57.664Z,10.90
2023-01-02T12:50:46.885Z,11.00
2023-01-02T12:53:27.275Z,11.40
2023-01-02T12:56:08.142Z,11.70
2023-01-02T12:58:49.138Z,11.80
2023-01-02T13:01:22.434Z,12.00
2023-01-02T13:04:13.767Z,12.10
2023-01-02T13:06:47.955Z,12.60
2023-01-02T13:09:23.390Z,13.20
2023-01-02T13:11:57.673Z,14.20
2023-01-02T13:14:31.432Z,14.80
2023-01-02T13:17:09.222Z,15.30
2023-01-02T13:19:44.568Z,15.40
2023-01-02T13:22:21.344Z,15.30
2023-01-02T13:24:50.863Z,15.20
2023-01-02T13:27:19.156Z,15.40
2023-01-02T13:29:47.554Z,15.30
2023-01-02T13:32:26.806Z,15.20
2023-01-02T13:34:57.552Z,15.00
2023-01-02T13:37:28.215Z,15.00
2023-01-02T13:39:58.578Z,14.90
2023-01-02T13:42:47.327Z,14.80
2023-01-02T13:45:18.234Z,14.70
2023-01-02T13:47:52.263Z,14.50
2023-01-02T13:50:26.264Z,14.50
2023-01-02T13:53:08.232Z,14.30
2023-01-02T13:55:37.322Z,13.80
2023-01-02T13:58:37.585Z,13.90
2023-01-02T14:01:27.966Z,14.10
2023-01-02T14:04:29.217Z,14.60
2023-01-02T14:07:39.147Z,14.60
2023-01-02T14:10:34.825Z,14.30
2023-01-02T14:13:13.273Z,14.00
2023-01-02T14:16:02.976Z,13.60
2023-01-02T14:43:38.620Z,11.60
2023-01-02T14:46:12.282Z,11.50
2023-01-02T14:48:49.746Z,11.50
2023-01-02T14:51:23.186Z,11.50
2023-01-02T14:53:55.555Z,11.50
2023-01-02T14:56:28.028Z,11.50
2023-01-02T14:58:59.023Z,11.50
2023-01-02T15:01:43.474Z,11.50
2023-01-02T15:04:21.419Z,11.50
2023-01-02T15:09:30.733Z,11.40
2023-01-02T15:12:17.885Z,11.40
2023-01-02T15:20:19.773Z,11.10
2023-01-02T15:22:48.661Z,11.10
2023-01-02T15:27:44.032Z,11.00
2023-01-02T15:30:24.448Z,11.00
2023-01-02T15:32:52.507Z,11.00
2023-01-02T15:35:23.538Z,11.00
